Аэропорт: Уйташ. Махачкала

ICAO: URML

METAR:
2019/03/24 18:00
URML 241800Z 33005MPS 9999 FEW059 07/M01 Q1017 R32/01//70 NOSIG RMK QFE762/1017
METAR:
2018/10/17 18:00
TAF URML 171700Z 1718/1803 15005G10MPS 6000 SCT011 BKN020 
      TEMPO 1718/1724 22003G10MPS 3100 BR SCT007 BKN011